Time;durP1;ratioP1;P1;durP2;ratioP2;P2;SDS_P1;SDS_P2;PMS_P1;PMS_P2;Temp;Humidity;BMP_temperature;BMP_pressure;BME280_temperature;BME280_humidity;BME280_pressure;Samples;Min_cycle;Max_cycle;Signal;HPM_P1;HPM_P2
2022/08/16 00:00:21;;;;;;;;;31.00;30.50;;;;;21.36;79.29;100152.81;5084472;27;46892;-91
2022/08/16 00:02:47;;;;;;;;;34.00;31.75;;;;;21.52;79.96;100181.00;5091128;27;45101;-89
2022/08/16 00:05:13;;;;;;;;;35.50;32.00;;;;;21.59;79.36;100198.72;5092103;27;44996;-88
2022/08/16 00:07:40;;;;;;;;;32.00;30.25;;;;;21.57;79.47;100202.31;5089008;28;44913;-90
2022/08/16 00:10:08;;;;;;;;;30.75;30.00;;;;;21.58;79.40;100198.75;5083877;27;47847;-86
2022/08/16 00:12:33;;;;;;;;;34.00;32.50;;;;;21.47;79.45;100169.53;5083501;27;45937;-87
2022/08/16 00:15:14;;;;;;;;;37.75;33.25;;;;;21.59;79.59;100192.50;5089474;28;45052;-90
2022/08/16 00:17:40;;;;;;;;;31.75;31.25;;;;;21.49;79.13;100182.88;5089332;28;45403;-91
2022/08/16 00:20:07;;;;;;;;;34.00;31.25;;;;;21.62;79.10;100203.13;5105139;27;47419;-88
2022/08/16 00:22:33;;;;;;;;;33.00;31.50;;;;;21.63;79.22;100213.81;5088495;27;45318;-90
2022/08/16 00:24:58;;;;;;;;;33.50;31.50;;;;;21.60;79.70;100197.81;5084076;28;45429;-89
2022/08/16 00:27:24;;;;;;;;;35.00;32.50;;;;;21.46;79.58;100167.78;5086113;27;45080;-90
2022/08/16 00:29:49;;;;;;;;;35.00;33.00;;;;;21.58;79.61;100190.75;5089185;28;63329;-89
2022/08/16 00:32:15;;;;;;;;;37.00;33.75;;;;;21.41;79.32;100160.75;5101039;27;45349;-90
2022/08/16 00:34:40;;;;;;;;;33.50;31.50;;;;;21.45;79.46;100167.81;5109701;27;45006;-88
2022/08/16 00:37:05;;;;;;;;;34.50;32.75;;;;;21.56;79.58;100184.53;5093868;27;45083;-89
2022/08/16 00:39:31;;;;;;;;;32.50;31.25;;;;;21.52;79.98;100178.34;5089047;27;51253;-91
2022/08/16 00:41:56;;;;;;;;;34.50;33.00;;;;;21.33;79.47;100145.75;5090125;27;45504;-87
2022/08/16 00:44:21;;;;;;;;;36.50;32.50;;;;;21.43;80.11;100158.91;5091514;27;44940;-88
2022/08/16 00:46:53;;;;;;;;;33.50;31.75;;;;;21.59;80.03;100196.06;5092080;27;45327;-91
2022/08/16 00:49:18;;;;;;;;;40.00;34.50;;;;;21.36;80.35;100152.81;5094611;27;45603;-91
2022/08/16 00:51:44;;;;;;;;;33.50;31.25;;;;;21.47;80.06;100174.88;5090735;27;45252;-89
2022/08/16 00:54:10;;;;;;;;;34.50;32.75;;;;;21.49;80.18;100188.25;5092985;27;45067;-91
2022/08/16 00:56:38;;;;;;;;;35.25;32.75;;;;;21.37;79.98;100174.16;5089087;27;45346;-86
2022/08/16 00:59:05;;;;;;;;;35.00;32.25;;;;;21.36;80.46;100179.56;5091037;28;46085;-88
2022/08/16 01:01:31;;;;;;;;;34.25;32.75;;;;;21.27;80.35;100160.97;5123342;27;45743;-90
2022/08/16 01:03:58;;;;;;;;;31.50;30.50;;;;;21.31;80.29;100182.31;5107481;27;45155;-90
2022/08/16 01:06:23;;;;;;;;;36.75;33.50;;;;;21.01;80.89;100129.38;5090572;28;45151;-90
2022/08/16 01:08:52;;;;;;;;;36.50;33.25;;;;;21.07;80.70;100130.16;5088338;27;46001;-91
2022/08/16 01:11:19;;;;;;;;;33.50;32.25;;;;;21.13;80.71;100151.44;5083562;28;45779;-91
2022/08/16 01:13:45;;;;;;;;;36.50;33.50;;;;;21.33;80.49;100184.97;5091191;27;45249;-89
2022/08/16 01:16:18;;;;;;;;;31.25;30.75;;;;;21.25;80.99;100171.69;5089403;27;45117;-89
2022/08/16 01:18:50;;;;;;;;;34.50;33.00;;;;;21.37;80.52;100181.31;5106165;27;46305;-90
2022/08/16 01:21:30;;;;;;;;;35.00;33.00;;;;;21.37;80.72;100186.66;5091449;27;45117;-91
2022/08/16 01:24:14;;;;;;;;;33.50;31.50;;;;;21.37;80.82;100184.88;5091788;27;45037;-89
2022/08/16 01:26:41;;;;;;;;;38.00;33.25;;;;;21.38;81.28;100188.44;5106204;27;45369;-89
2022/08/16 01:29:12;;;;;;;;;36.25;33.50;;;;;21.18;81.14;100143.34;5091169;28;46230;-90
2022/08/16 01:31:38;;;;;;;;;34.50;32.50;;;;;21.41;80.94;100179.47;5107501;27;45597;-90
2022/08/16 01:34:03;;;;;;;;;34.25;32.75;;;;;21.10;81.13;100118.53;5088273;28;45004;-89
2022/08/16 01:36:29;;;;;;;;;32.25;31.50;;;;;20.94;81.13;100090.34;5099842;27;45291;-89
2022/08/16 01:38:54;;;;;;;;;32.50;31.50;;;;;21.36;81.01;100164.38;5103949;27;47390;-89
2022/08/16 01:41:23;;;;;;;;;37.25;33.25;;;;;21.42;81.10;100175.88;5085111;27;45264;-90
2022/08/16 01:43:51;;;;;;;;;35.25;32.50;;;;;21.43;81.01;100173.19;5087219;28;45525;-90
2022/08/16 01:46:28;;;;;;;;;34.75;31.75;;;;;21.44;80.80;100172.28;5086898;27;45224;-89
2022/08/16 01:49:02;;;;;;;;;33.50;32.25;;;;;21.26;81.14;100129.81;5105416;27;47086;-91
2022/08/16 01:51:29;;;;;;;;;35.75;33.25;;;;;21.50;81.12;100168.59;5100733;27;45793;-88
2022/08/16 01:53:54;;;;;;;;;33.00;31.50;;;;;21.36;81.23;100143.00;5088698;27;45007;-89
2022/08/16 01:56:21;;;;;;;;;36.75;33.00;;;;;21.42;81.18;100160.72;5099549;27;45342;-90
2022/08/16 01:58:47;;;;;;;;;32.00;30.50;;;;;21.29;80.87;100133.31;5102839;27;46321;-92
2022/08/16 02:01:13;;;;;;;;;32.00;31.25;;;;;21.55;81.11;100178.28;5101072;27;45418;-90
2022/08/16 02:03:39;;;;;;;;;30.50;29.75;;;;;21.34;81.18;100139.50;5094198;27;45129;-90
2022/08/16 02:06:05;;;;;;;;;38.75;34.25;;;;;21.54;81.19;100173.88;5088438;27;45126;-90
2022/08/16 02:08:30;;;;;;;;;36.25;33.25;;;;;21.33;81.37;100147.56;5089981;27;45559;-90
2022/08/16 02:10:56;;;;;;;;;37.75;33.25;;;;;21.51;81.23;100173.03;5089984;27;45315;-91
2022/08/16 02:13:22;;;;;;;;;32.25;31.25;;;;;21.49;80.93;100167.72;5089918;28;45192;-92
2022/08/16 02:15:48;;;;;;;;;34.50;31.50;;;;;21.17;81.08;100114.81;5090517;27;44902;-90
2022/08/16 02:18:13;;;;;;;;;34.25;32.75;;;;;21.48;81.23;100167.75;5089614;27;45736;-91
2022/08/16 02:20:41;;;;;;;;;34.25;32.50;;;;;21.33;81.13;100145.75;5091317;27;45348;-90
2022/08/16 02:23:07;;;;;;;;;37.25;34.25;;;;;21.08;81.17;100104.31;5091348;28;44854;-91
2022/08/16 02:25:33;;;;;;;;;37.00;33.25;;;;;21.46;81.02;100167.78;5084435;28;45146;-89
2022/08/16 02:27:58;;;;;;;;;34.25;32.25;;;;;21.25;81.46;100125.38;5093107;28;45910;-90
2022/08/16 02:30:26;;;;;;;;;29.50;28.75;;;;;21.35;81.22;100138.56;5122783;27;44994;-91
2022/08/16 02:32:52;;;;;;;;;31.50;30.25;;;;;21.33;81.66;100124.38;5107072;27;45178;-91
2022/08/16 02:35:19;;;;;;;;;35.25;32.25;;;;;21.37;81.48;100126.03;5086822;28;45322;-91
2022/08/16 02:37:44;;;;;;;;;33.00;32.00;;;;;21.40;81.26;100121.56;5084333;28;45331;-91
2022/08/16 02:40:12;;;;;;;;;32.00;31.25;;;;;21.44;81.17;100134.84;5102357;27;45000;-91
2022/08/16 02:42:37;;;;;;;;;32.50;31.25;;;;;21.27;81.15;100094.16;5089560;27;45406;-90
2022/08/16 02:45:04;;;;;;;;;30.00;30.00;;;;;21.27;80.96;100110.19;5104184;27;45344;-88
2022/08/16 02:47:29;;;;;;;;;31.50;31.00;;;;;21.40;81.08;100137.59;5105025;27;48648;-90
2022/08/16 02:49:55;;;;;;;;;33.50;32.25;;;;;21.15;81.36;100083.72;5100235;27;45570;-91
2022/08/16 02:52:21;;;;;;;;;32.00;30.75;;;;;21.29;81.35;100103.91;5104636;27;45302;-89
2022/08/16 02:54:46;;;;;;;;;34.00;31.50;;;;;21.27;80.87;100099.50;5089915;27;45436;-91
2022/08/16 02:57:11;;;;;;;;;34.33;31.67;;;;;21.23;81.22;100090.69;5084930;27;59908;-89
2022/08/16 02:59:38;;;;;;;;;29.25;28.75;;;;;21.26;81.11;100090.59;5107942;27;45187;-91
2022/08/16 03:02:03;;;;;;;;;30.50;30.25;;;;;21.02;80.90;100041.19;5087295;28;45418;-92
2022/08/16 03:04:29;;;;;;;;;32.75;31.25;;;;;21.27;80.75;100081.66;5107818;27;45114;-90
2022/08/16 03:06:55;;;;;;;;;31.67;30.67;;;;;21.38;81.21;100097.56;5089018;27;45758;-86
2022/08/16 03:09:20;;;;;;;;;34.50;32.00;;;;;21.21;81.20;100075.56;5086461;27;45036;-88
2022/08/16 03:11:46;;;;;;;;;34.25;32.25;;;;;21.28;81.14;100085.22;5102786;27;45362;-91
2022/08/16 03:14:11;;;;;;;;;33.50;31.75;;;;;21.34;81.08;100091.38;5089910;28;45273;-88
2022/08/16 03:16:37;;;;;;;;;34.25;32.25;;;;;21.25;81.02;100082.63;5103462;27;47154;-90
2022/08/16 03:19:03;;;;;;;;;36.50;33.00;;;;;21.28;81.02;100090.56;5090949;27;45129;-90
2022/08/16 03:21:28;;;;;;;;;35.00;33.25;;;;;21.23;80.33;100096.03;5085129;27;45298;-88
2022/08/16 03:23:54;;;;;;;;;33.50;31.50;;;;;21.22;80.67;100101.38;5086969;28;45500;-91
2022/08/16 03:26:19;;;;;;;;;33.25;31.75;;;;;21.25;80.30;100117.38;5087311;27;45585;-90
2022/08/16 03:28:45;;;;;;;;;32.25;31.00;;;;;21.34;80.59;100136.81;5102681;27;45367;-89
2022/08/16 03:31:10;;;;;;;;;36.50;33.75;;;;;21.45;80.51;100155.31;5105462;27;45415;-90
2022/08/16 03:33:36;;;;;;;;;37.50;34.25;;;;;21.36;80.75;100137.66;5087781;27;44953;-92
2022/08/16 03:36:03;;;;;;;;;31.75;31.00;;;;;21.31;79.86;100130.63;5101801;27;47576;-91
2022/08/16 03:38:29;;;;;;;;;35.75;33.00;;;;;21.42;79.85;100146.47;5085531;27;45118;-88
2022/08/16 03:40:57;;;;;;;;;36.75;31.75;;;;;21.45;79.80;100163.34;5082362;27;45219;-91
2022/08/16 03:43:23;;;;;;;;;33.25;32.00;;;;;21.33;79.75;100147.56;5088040;27;45467;-89
2022/08/16 03:45:54;;;;;;;;;28.50;28.50;;;;;21.29;80.00;100145.81;5086759;28;45248;-91
2022/08/16 03:48:22;;;;;;;;;30.00;29.50;;;;;21.39;80.15;100166.13;5089429;27;45511;-91
2022/08/16 03:50:47;;;;;;;;;30.75;30.50;;;;;21.36;79.85;100156.38;5084863;28;44953;-88
2022/08/16 03:53:13;;;;;;;;;29.50;28.75;;;;;21.16;80.21;100117.53;5091080;27;44901;-90
2022/08/16 03:55:38;;;;;;;;;33.25;31.75;;;;;21.00;80.40;100101.78;5085908;27;45982;-90
2022/08/16 03:58:04;;;;;;;;;32.25;30.75;;;;;21.11;80.07;100122.97;5103945;27;45395;-89
2022/08/16 04:00:29;;;;;;;;;32.00;30.25;;;;;21.09;80.64;100125.69;5086018;27;45567;-91
2022/08/16 04:02:57;;;;;;;;;32.50;30.50;;;;;21.10;80.26;100134.56;5104980;27;45037;-91
2022/08/16 04:05:23;;;;;;;;;31.50;31.00;;;;;21.15;80.82;100131.81;5082793;27;45757;-86
2022/08/16 04:07:49;;;;;;;;;31.25;31.25;;;;;21.20;80.91;100152.19;5090374;27;45566;-90
2022/08/16 04:10:15;;;;;;;;;30.50;29.75;;;;;20.91;80.82;100114.44;5091078;28;44960;-90
2022/08/16 04:12:46;;;;;;;;;31.25;28.00;;;;;21.15;80.89;100155.88;5086525;27;45239;-88
2022/08/16 04:15:14;;;;;;;;;35.75;32.75;;;;;21.11;81.20;100147.91;5093188;27;45414;-89
2022/08/16 04:17:40;;;;;;;;;30.25;28.75;;;;;21.14;81.41;100152.31;5089769;27;45871;-90
2022/08/16 04:20:07;;;;;;;;;31.00;30.00;;;;;21.07;81.24;100143.50;5089227;28;45191;-90
2022/08/16 04:22:33;;;;;;;;;36.25;33.00;;;;;21.04;81.35;100143.59;5089413;27;45279;-89
2022/08/16 04:24:59;;;;;;;;;29.75;29.25;;;;;20.84;81.39;100122.56;5106548;27;48413;-91
2022/08/16 04:27:25;;;;;;;;;32.50;30.25;;;;;20.87;81.54;100125.16;5091393;27;45236;-88
2022/08/16 04:29:50;;;;;;;;;35.25;32.00;;;;;20.93;81.72;100140.19;5105149;27;45491;-91
2022/08/16 04:32:15;;;;;;;;;33.75;32.75;;;;;20.95;81.99;100159.78;5092829;27;45075;-90
2022/08/16 04:34:41;;;;;;;;;33.25;31.25;;;;;20.82;82.01;100128.81;5110796;27;57737;-91
2022/08/16 04:37:06;;;;;;;;;31.50;30.00;;;;;20.70;81.76;100115.69;5087810;28;45252;-85
2022/08/16 04:39:34;;;;;;;;;31.75;30.75;;;;;20.71;82.08;100123.66;5092130;27;45409;-90
2022/08/16 04:42:00;;;;;;;;;29.50;29.50;;;;;20.93;82.19;100161.56;5089084;27;45379;-91
2022/08/16 04:44:25;;;;;;;;;33.25;30.50;;;;;20.75;82.18;100125.38;5089182;27;45550;-89
2022/08/16 04:46:52;;;;;;;;;33.75;31.75;;;;;20.80;81.99;100141.34;5091666;27;44957;-91
2022/08/16 04:49:18;;;;;;;;;32.00;29.50;;;;;20.77;82.18;100131.56;5091179;27;45433;-91
2022/08/16 04:51:43;;;;;;;;;29.75;29.00;;;;;20.79;82.60;100140.47;5086779;27;45316;-91
2022/08/16 04:54:10;;;;;;;;;35.25;32.75;;;;;20.64;82.72;100113.09;5094051;27;45157;-92
2022/08/16 04:56:36;;;;;;;;;29.25;29.25;;;;;20.80;82.53;100144.00;5090055;27;45665;-91
2022/08/16 04:59:02;;;;;;;;;33.50;31.75;;;;;20.81;82.58;100157.31;5110094;27;45072;-90
2022/08/16 05:01:27;;;;;;;;;35.50;31.25;;;;;20.73;83.15;100150.34;5091668;27;45233;-86
2022/08/16 05:03:53;;;;;;;;;32.75;31.00;;;;;20.77;83.25;100158.28;5085701;27;45276;-89
2022/08/16 05:06:18;;;;;;;;;28.25;26.25;;;;;20.92;83.17;100183.84;5090100;27;45523;-90
2022/08/16 05:08:44;;;;;;;;;29.00;28.00;;;;;20.78;83.34;100156.50;5089374;27;52917;-90
2022/08/16 05:11:12;;;;;;;;;26.25;24.25;;;;;20.90;83.20;100169.66;5089619;27;45334;-90
2022/08/16 05:13:40;;;;;;;;;30.00;28.25;;;;;20.91;83.13;100182.09;5086286;27;45714;-91
2022/08/16 05:16:08;;;;;;;;;35.25;33.00;;;;;20.94;82.98;100190.06;5086391;28;45252;-92
2022/08/16 05:18:34;;;;;;;;;32.25;31.00;;;;;20.72;82.82;100151.25;5093059;27;45242;-90
2022/08/16 05:21:00;;;;;;;;;33.50;32.25;;;;;20.81;83.12;100161.78;5091532;28;44866;-90
2022/08/16 05:23:25;;;;;;;;;36.00;33.33;;;;;20.90;83.04;100172.31;5093350;27;46931;-90
2022/08/16 05:25:50;;;;;;;;;31.00;30.00;;;;;20.85;83.54;100158.16;5089729;27;45075;-87
2022/08/16 05:28:17;;;;;;;;;32.33;31.00;;;;;20.90;83.30;100161.63;5106462;27;45097;-90
2022/08/16 05:30:43;;;;;;;;;29.75;29.00;;;;;20.84;83.09;100153.75;5093828;27;45043;-86
2022/08/16 05:33:09;;;;;;;;;30.50;28.25;;;;;21.11;82.87;100195.13;5094394;27;45147;-89
2022/08/16 05:35:35;;;;;;;;;30.75;29.00;;;;;21.10;83.08;100199.59;5084924;27;45720;-91
2022/08/16 05:38:00;;;;;;;;;32.00;29.75;;;;;20.79;82.58;100139.56;5086071;27;45515;-91
2022/08/16 05:40:26;;;;;;;;;29.00;28.75;;;;;20.94;82.67;100175.84;5086102;28;45373;-91
2022/08/16 05:42:51;;;;;;;;;27.00;25.33;;;;;21.08;82.61;100195.16;5090730;27;45260;-89
2022/08/16 05:45:17;;;;;;;;;26.25;25.75;;;;;20.83;82.79;100155.50;5085978;28;45472;-89
2022/08/16 05:47:42;;;;;;;;;27.50;27.25;;;;;21.09;83.07;100189.81;5089616;27;44842;-89
2022/08/16 05:50:08;;;;;;;;;27.00;27.00;;;;;21.15;82.96;100195.97;5089490;27;47153;-87
2022/08/16 05:52:33;;;;;;;;;28.25;26.75;;;;;21.08;82.85;100185.38;5084946;27;46087;-89
2022/08/16 05:54:59;;;;;;;;;27.50;26.75;;;;;20.99;82.81;100163.28;5090083;27;45221;-90
2022/08/16 05:57:24;;;;;;;;;29.25;28.25;;;;;21.03;83.03;100163.19;5105421;27;45683;-90
2022/08/16 05:59:50;;;;;;;;;26.25;25.50;;;;;21.30;83.21;100206.38;5088793;28;45337;-89
2022/08/16 06:02:16;;;;;;;;;32.25;30.25;;;;;21.05;82.83;100169.38;5105535;27;46702;-82
2022/08/16 06:04:42;;;;;;;;;29.00;26.75;;;;;21.27;82.21;100207.28;5088945;27;45469;-90
2022/08/16 06:07:08;;;;;;;;;25.50;25.25;;;;;21.32;81.40;100185.84;5104585;27;45001;-89
2022/08/16 06:09:33;;;;;;;;;29.25;27.25;;;;;21.56;81.48;100240.69;5106834;27;45172;-90
2022/08/16 06:12:00;;;;;;;;;26.50;26.25;;;;;21.42;81.61;100202.63;5087049;27;45445;-87
2022/08/16 06:14:26;;;;;;;;;27.00;25.75;;;;;21.51;81.03;100208.66;5093499;27;45130;-87
2022/08/16 06:16:52;;;;;;;;;29.75;27.50;;;;;21.62;80.29;100203.13;5087968;28;45232;-90
2022/08/16 06:19:17;;;;;;;;;24.50;23.75;;;;;21.78;80.08;100219.78;5092271;27;44942;-91
2022/08/16 06:21:43;;;;;;;;;27.00;26.25;;;;;21.47;79.41;100158.84;5088113;27;45286;-88
2022/08/16 06:24:08;;;;;;;;;23.25;22.25;;;;;21.72;79.98;100194.00;5087933;27;45142;-89
2022/08/16 06:26:33;;;;;;;;;23.75;22.25;;;;;21.94;79.46;100231.91;5102120;27;45368;-88
2022/08/16 06:28:59;;;;;;;;;23.50;22.75;;;;;21.80;79.95;100185.84;5085810;27;45296;-89
2022/08/16 06:31:24;;;;;;;;;24.25;23.50;;;;;21.99;79.59;100213.97;5092467;27;45971;-90
2022/08/16 06:33:49;;;;;;;;;27.50;26.00;;;;;22.02;79.72;100194.28;5106467;27;45195;-89
2022/08/16 06:36:15;;;;;;;;;21.25;20.25;;;;;22.10;79.39;100225.34;5100676;27;45575;-90
2022/08/16 06:38:41;;;;;;;;;25.00;23.50;;;;;22.02;78.61;100205.91;5093190;28;45042;-90
2022/08/16 06:41:08;;;;;;;;;23.75;23.25;;;;;22.17;79.27;100225.22;5102478;27;47353;-88
2022/08/16 06:43:34;;;;;;;;;25.00;23.75;;;;;22.11;78.91;100215.53;5089266;27;45315;-92
2022/08/16 06:46:02;;;;;;;;;22.75;22.50;;;;;22.09;78.44;100207.50;5090871;27;45380;-89
2022/08/16 06:48:27;;;;;;;;;22.25;21.25;;;;;22.11;78.85;100208.38;5090673;27;45356;-90
2022/08/16 06:50:54;;;;;;;;;25.75;25.75;;;;;22.11;78.99;100194.13;5088595;27;45713;-88
2022/08/16 06:53:19;;;;;;;;;23.50;23.50;;;;;22.12;79.44;100199.47;5105954;27;45498;-90
2022/08/16 06:55:45;;;;;;;;;26.00;23.00;;;;;22.32;79.49;100224.94;5083899;27;45490;-89
2022/08/16 06:58:10;;;;;;;;;21.50;21.00;;;;;22.25;78.85;100209.91;5107328;27;45212;-92
2022/08/16 07:00:37;;;;;;;;;22.75;22.50;;;;;22.18;79.55;100197.56;5085913;27;45460;-91
2022/08/16 07:03:03;;;;;;;;;19.75;19.25;;;;;22.42;78.23;100236.31;5094173;27;45504;-91
2022/08/16 07:05:30;;;;;;;;;24.50;23.75;;;;;22.43;77.63;100230.91;5108765;27;45246;-91
2022/08/16 07:07:56;;;;;;;;;21.25;21.25;;;;;22.30;78.41;100208.88;5089576;28;45410;-91
2022/08/16 07:10:21;;;;;;;;;23.75;22.75;;;;;22.50;77.59;100234.31;5086518;28;47176;-91
2022/08/16 07:12:49;;;;;;;;;25.50;25.25;;;;;22.38;77.67;100217.63;5087632;28;45228;-89
2022/08/16 07:15:18;;;;;;;;;25.25;23.75;;;;;22.55;78.17;100240.47;5089972;27;45416;-90
2022/08/16 07:17:45;;;;;;;;;22.50;21.75;;;;;22.37;77.45;100205.16;5088783;28;45309;-91
2022/08/16 07:20:12;;;;;;;;;23.25;22.00;;;;;22.57;77.63;100230.63;5104932;27;47715;-92
2022/08/16 07:22:38;;;;;;;;;28.00;22.00;;;;;22.63;77.86;100238.50;5091125;28;45117;-92
2022/08/16 07:25:06;;;;;;;;;24.00;23.50;;;;;22.42;78.26;100180.97;5091323;27;45254;-90
2022/08/16 07:27:31;;;;;;;;;26.25;23.50;;;;;22.40;77.67;100178.28;5086996;28;44983;-88
2022/08/16 07:29:56;;;;;;;;;19.25;19.00;;;;;22.54;77.04;100207.44;5091893;27;46052;-90
2022/08/16 07:32:22;;;;;;;;;20.00;19.00;;;;;22.62;76.53;100216.19;5090718;28;51839;-90
2022/08/16 07:34:47;;;;;;;;;23.50;23.00;;;;;22.63;76.15;100217.06;5090598;27;45047;-91
2022/08/16 07:37:17;;;;;;;;;23.33;21.33;;;;;22.87;75.63;100255.81;5105703;27;45292;-90
2022/08/16 07:39:42;;;;;;;;;23.50;22.00;;;;;22.89;75.59;100262.03;5089395;27;45237;-88
2022/08/16 07:42:07;;;;;;;;;22.00;22.00;;;;;22.69;75.67;100216.03;5087917;27;45533;-90
2022/08/16 07:44:33;;;;;;;;;23.25;22.50;;;;;22.67;75.43;100221.44;5088157;27;45074;-89
2022/08/16 07:46:58;;;;;;;;;22.00;21.00;;;;;22.72;75.62;100238.28;5089510;27;45250;-89
2022/08/16 07:49:23;;;;;;;;;25.67;24.33;;;;;22.71;75.78;100230.28;5091310;27;64785;-88
2022/08/16 07:51:49;;;;;;;;;18.00;18.00;;;;;22.88;75.88;100262.94;5098637;27;45046;-87
2022/08/16 07:54:16;;;;;;;;;21.25;21.25;;;;;22.72;75.29;100227.56;5071752;28;44925;-92
2022/08/16 07:56:41;;;;;;;;;22.50;22.00;;;;;22.71;75.17;100235.63;5066236;28;44968;-92
2022/08/16 07:59:07;;;;;;;;;22.00;21.00;;;;;22.77;75.48;100240.88;5071550;28;45542;-89
2022/08/16 08:01:33;;;;;;;;;19.50;19.50;;;;;22.77;75.75;100228.34;5081992;28;45529;-90
2022/08/16 08:03:59;;;;;;;;;22.50;21.00;;;;;22.99;74.89;100247.50;5102796;27;45524;-88
2022/08/16 08:06:27;;;;;;;;;19.75;19.50;;;;;23.07;75.06;100252.69;5067803;28;45132;-91
2022/08/16 08:08:53;;;;;;;;;22.75;20.50;;;;;22.98;74.89;100226.09;5068218;28;45637;-90
2022/08/16 08:11:21;;;;;;;;;22.00;19.75;;;;;23.09;74.00;100243.66;5083633;28;45351;-91
2022/08/16 08:13:46;;;;;;;;;19.50;19.50;;;;;22.93;74.11;100223.53;5067500;28;45100;-90
2022/08/16 08:16:11;;;;;;;;;17.00;17.00;;;;;22.94;74.54;100227.97;5099300;27;45275;-92
2022/08/16 08:18:37;;;;;;;;;19.25;18.25;;;;;22.87;74.59;100220.97;5071049;28;45614;-89
2022/08/16 08:21:02;;;;;;;;;21.00;20.75;;;;;22.90;74.17;100227.16;5065693;28;45044;-88
2022/08/16 08:23:28;;;;;;;;;19.50;18.50;;;;;22.91;74.01;100225.38;5068905;28;45737;-89
2022/08/16 08:25:53;;;;;;;;;20.50;20.50;;;;;23.10;74.43;100240.09;5066240;28;45354;-91
2022/08/16 08:28:19;;;;;;;;;20.25;19.50;;;;;23.19;74.08;100241.63;5067800;28;46459;-90
2022/08/16 08:30:44;;;;;;;;;21.25;20.25;;;;;23.22;73.65;100225.47;5069327;28;45238;-91
2022/08/16 08:33:11;;;;;;;;;19.50;19.50;;;;;23.40;72.60;100213.41;5102814;27;45066;-92
2022/08/16 08:35:37;;;;;;;;;25.50;22.25;;;;;23.52;72.21;100213.06;5068046;28;45225;-90
2022/08/16 08:38:07;;;;;;;;;21.50;21.00;;;;;23.72;72.04;100254.59;5067524;28;45604;-92
2022/08/16 08:40:33;;;;;;;;;19.25;18.25;;;;;23.63;73.07;100227.09;5068058;28;45261;-91
2022/08/16 08:42:59;;;;;;;;;21.25;20.00;;;;;23.87;72.73;100249.69;5088828;28;45151;-90
2022/08/16 08:45:24;;;;;;;;;24.25;23.25;;;;;24.06;73.09;100259.91;5090951;27;45000;-91
2022/08/16 08:47:50;;;;;;;;;19.25;18.75;;;;;24.02;71.44;100237.63;5091576;28;45343;-91
2022/08/16 08:50:16;;;;;;;;;18.50;17.75;;;;;23.99;70.61;100227.00;5104927;27;45094;-91
2022/08/16 08:52:43;;;;;;;;;19.00;17.25;;;;;24.04;70.88;100224.16;5089945;27;45114;-90
2022/08/16 08:55:12;;;;;;;;;21.50;20.75;;;;;24.15;70.14;100243.53;5092688;27;45110;-90
2022/08/16 08:57:40;;;;;;;;;22.50;21.50;;;;;24.23;69.59;100260.28;5092910;28;46729;-87
2022/08/16 09:00:06;;;;;;;;;22.75;22.25;;;;;24.03;70.30;100228.66;5094800;28;45723;-91
2022/08/16 09:02:32;;;;;;;;;19.00;18.75;;;;;24.00;70.53;100235.94;5095237;27;45524;-90
2022/08/16 09:04:57;;;;;;;;;22.00;20.50;;;;;24.07;69.75;100262.53;5094676;27;45181;-90
2022/08/16 09:07:22;;;;;;;;;21.00;18.25;;;;;23.88;70.79;100237.16;5104864;27;47875;-91
2022/08/16 09:09:48;;;;;;;;;21.25;19.25;;;;;23.88;70.25;100240.72;5094559;27;44913;-88
2022/08/16 09:12:17;;;;;;;;;19.00;18.25;;;;;23.85;70.02;100237.25;5107326;27;45267;-90
2022/08/16 09:14:44;;;;;;;;;18.25;17.25;;;;;23.88;70.21;100250.56;5092720;27;45381;-92
2022/08/16 09:17:10;;;;;;;;;18.75;18.00;;;;;24.13;69.58;100278.47;5107246;27;47445;-89
2022/08/16 09:19:37;;;;;;;;;20.25;19.25;;;;;24.21;70.00;100289.00;5095608;27;45409;-90
2022/08/16 09:22:03;;;;;;;;;16.25;16.00;;;;;24.30;69.75;100279.81;5092185;28;45157;-90
2022/08/16 09:24:29;;;;;;;;;20.75;19.25;;;;;24.45;69.22;100274.91;5094599;27;45039;-91
2022/08/16 09:26:54;;;;;;;;;17.50;17.50;;;;;24.58;68.86;100263.75;5104625;27;47219;-90
2022/08/16 09:29:20;;;;;;;;;20.50;18.00;;;;;24.62;68.37;100243.94;5092218;27;45040;-90
2022/08/16 09:31:46;;;;;;;;;16.50;16.50;;;;;24.99;68.25;100291.19;5094155;27;44928;-91
2022/08/16 09:34:11;;;;;;;;;20.25;18.25;;;;;24.91;67.32;100248.38;5094089;27;45027;-91
2022/08/16 09:36:37;;;;;;;;;19.50;18.25;;;;;24.88;66.60;100235.94;5107604;27;47315;-88
2022/08/16 09:39:03;;;;;;;;;16.75;16.75;;;;;25.15;66.67;100287.09;5091630;27;44932;-91
2022/08/16 09:41:29;;;;;;;;;19.50;19.25;;;;;25.19;66.68;100288.75;5093237;28;45421;-91
2022/08/16 09:43:57;;;;;;;;;5.00;4.00;;;;;25.02;66.31;100253.41;5111494;27;45239;-91
2022/08/16 09:46:24;;;;;;;;;15.75;15.75;;;;;25.29;66.13;100297.41;5094556;27;47715;-89
2022/08/16 09:48:51;;;;;;;;;19.50;17.75;;;;;24.85;66.56;100209.16;5096861;28;45252;-90
2022/08/16 09:51:17;;;;;;;;;16.50;15.75;;;;;25.17;66.63;100248.47;5092370;27;45039;-91
2022/08/16 09:53:42;;;;;;;;;18.25;16.25;;;;;25.16;66.01;100248.50;5110138;27;45075;-91
2022/08/16 09:56:21;;;;;;;;;18.00;17.75;;;;;25.20;66.03;100253.72;5106410;27;47737;-90
2022/08/16 09:58:46;;;;;;;;;17.50;17.00;;;;;25.12;66.64;100236.97;5091617;27;45266;-90
2022/08/16 10:01:12;;;;;;;;;19.00;17.25;;;;;25.19;66.96;100245.72;5110227;27;45066;-89
2022/08/16 10:03:38;;;;;;;;;18.75;17.75;;;;;25.27;66.41;100248.13;5109759;27;45138;-91
2022/08/16 10:06:03;;;;;;;;;18.50;16.50;;;;;25.21;66.38;100254.59;5108097;27;47050;-89
2022/08/16 10:08:30;;;;;;;;;20.50;19.50;;;;;25.26;66.22;100273.28;5106247;27;45123;-92
2022/08/16 10:13:40;;;;;;;;;16.25;16.00;;;;;25.40;66.00;100289.84;5094213;28;45104;-89
2022/08/16 10:16:07;;;;;;;;;17.00;16.75;;;;;25.18;66.47;100246.66;5093714;27;45574;-90
2022/08/16 10:18:33;;;;;;;;;18.75;18.00;;;;;25.26;66.01;100239.19;5121669;27;45140;-89
2022/08/16 10:20:58;;;;;;;;;18.75;18.25;;;;;25.40;64.82;100254.84;5107546;27;44810;-85
2022/08/16 10:23:24;;;;;;;;;18.50;18.50;;;;;25.55;65.24;100280.38;5121973;27;44857;-91
2022/08/16 10:25:50;;;;;;;;;18.00;18.00;;;;;25.49;65.65;100270.69;5105284;27;47622;-91
2022/08/16 10:28:15;;;;;;;;;18.50;18.25;;;;;25.57;64.87;100278.50;5091883;27;45163;-91
2022/08/16 10:30:42;;;;;;;;;16.75;16.50;;;;;25.55;65.49;100264.22;5093393;27;45035;-90
2022/08/16 10:33:12;;;;;;;;;18.00;17.50;;;;;25.78;65.27;100290.38;5091291;28;44929;-92
2022/08/16 10:35:38;;;;;;;;;17.25;17.25;;;;;25.61;65.04;100245.16;5109461;27;45986;-90
2022/08/16 10:38:04;;;;;;;;;16.75;15.50;;;;;25.95;64.27;100287.94;5108753;27;45449;-92
2022/08/16 10:40:30;;;;;;;;;16.75;15.25;;;;;26.05;64.09;100283.09;5090158;27;45201;-90
2022/08/16 10:42:58;;;;;;;;;19.75;19.75;;;;;25.88;63.60;100238.81;5091727;28;45210;-89
2022/08/16 10:45:24;;;;;;;;;18.75;17.75;;;;;26.07;63.72;100257.00;5092917;27;45804;-91
2022/08/16 10:47:50;;;;;;;;;17.75;17.00;;;;;26.06;63.79;100239.97;5093211;27;45251;-91
2022/08/16 10:50:17;;;;;;;;;16.00;16.00;;;;;26.35;63.24;100279.25;5090477;27;44621;-88
2022/08/16 10:52:43;;;;;;;;;16.50;14.75;;;;;26.38;62.73;100275.59;5092976;27;45015;-88
2022/08/16 10:55:10;;;;;;;;;20.00;18.00;;;;;26.14;62.78;100237.84;5092665;28;45182;-88
2022/08/16 10:57:35;;;;;;;;;20.00;19.50;;;;;26.23;62.10;100261.75;5089850;27;45569;-89
2022/08/16 11:00:06;;;;;;;;;19.00;18.50;;;;;26.52;62.02;100300.22;5093740;28;45178;-87
2022/08/16 11:02:31;;;;;;;;;19.25;19.25;;;;;26.42;61.72;100269.16;5091835;27;45941;-90
2022/08/16 11:04:57;;;;;;;;;17.00;17.00;;;;;26.41;61.30;100259.31;5091782;27;45247;-88
2022/08/16 11:07:22;;;;;;;;;17.00;16.75;;;;;26.51;61.82;100273.34;5108733;27;44585;-90